Aldebaran — 9HA2000 — position and weather

sailwx.info

Track history (hours):
 
Tides and Currents Weather Stations Pressure Air Temp Water Temp Dewpoint Dewpoint Depression Visibility Wind Speed Wind Dir Waves Ship Positions

Aldebaran

Last reported at 2018-Apr-17 02:36 UTC. Time now 2018-Apr-23 00:13 UTC.
Position N 12°14' W 017°30'.

Length 207 m; draft 8.5 m.

Type: Ship (hazmat cat C). MMSI: 249771000.

Date/timePositionNaut miles runAvg speedWind from/ knotsBaromVisibWave heightAir tempDewpointWater temp
2018-Apr-17 02:36N 12°14' W 017°30'414.8
2018-Apr-17 02:18N 12°10' W 017°30'4014.8
2018-Apr-16 23:35N 11°31' W 017°21'4815.7
2018-Apr-16 20:33N 10°46' W 017°05'4314.6
2018-Apr-16 17:37N 10°11' W 016°39'214.5
2018-Apr-16 17:30N 10°10' W 016°38'714.9
2018-Apr-16 17:00N 10°04' W 016°33'815.0
2018-Apr-16 16:30N 09°59' W 016°28'815.1
2018-Apr-16 16:00N 09°53' W 016°23'715.0
2018-Apr-16 15:30N 09°48' W 016°18'815.1
2018-Apr-16 14:59N 09°42' W 016°12'714.8
2018-Apr-16 14:30N 09°37' W 016°07'814.9
2018-Apr-16 13:59N 09°32' W 016°01'815.1
2018-Apr-16 13:29N 09°26' W 015°56'715.3
2018-Apr-16 13:00N 09°21' W 015°51'815.2
2018-Apr-16 12:30N 09°16' W 015°45'815.0
2018-Apr-16 11:59N 09°10' W 015°40'6015.2
2018-Apr-16 08:00N 08°30' W 014°54'   230 / 151012.0 5.4 28.526.5
2018-Apr-09 08:00N 06°18' W 011°00'   140 / 171010.0 5.4 24.521.7
Track history (hours):
 
Tides and Currents Weather Stations Pressure Air Temp Water Temp Dewpoint Dewpoint Depression Visibility Wind Speed Wind Dir Waves Ship Positions

Aldebaran

Last reported at 2018-Apr-17 02:36 UTC. Time now 2018-Apr-23 00:13 UTC.
Position N 12°14' W 017°30'.

Length 207 m; draft 8.5 m.

Type: Ship (hazmat cat C). MMSI: 249771000.

Date/timePositionNaut miles runAvg speedWind from/ knotsBaromVisibWave heightAir tempDewpointWater temp
2018-Apr-17 02:36N 12°14' W 017°30'414.8
2018-Apr-17 02:18N 12°10' W 017°30'4014.8
2018-Apr-16 23:35N 11°31' W 017°21'4815.7
2018-Apr-16 20:33N 10°46' W 017°05'4314.6
2018-Apr-16 17:37N 10°11' W 016°39'214.5
2018-Apr-16 17:30N 10°10' W 016°38'714.9
2018-Apr-16 17:00N 10°04' W 016°33'815.0
2018-Apr-16 16:30N 09°59' W 016°28'815.1
2018-Apr-16 16:00N 09°53' W 016°23'715.0
2018-Apr-16 15:30N 09°48' W 016°18'815.1
2018-Apr-16 14:59N 09°42' W 016°12'714.8
2018-Apr-16 14:30N 09°37' W 016°07'814.9
2018-Apr-16 13:59N 09°32' W 016°01'815.1
2018-Apr-16 13:29N 09°26' W 015°56'715.3
2018-Apr-16 13:00N 09°21' W 015°51'815.2
2018-Apr-16 12:30N 09°16' W 015°45'815.0
2018-Apr-16 11:59N 09°10' W 015°40'6015.2
2018-Apr-16 08:00N 08°30' W 014°54'   230 / 151012.0 5.4 28.526.5
2018-Apr-09 08:00N 06°18' W 011°00'   140 / 171010.0 5.4 24.521.7

Dump ship's entire track history